Terminal Aerodrome Forecast
Issued by NWS

Home | Current Version | Previous Version | Text Only | Print | Product List | Glossary On
Versions: 1 2 3 4 5 6 7 8 9 10 11 12 13 14
000
FTUS43 KDLH 030500
TAFHIB
TAF
KHIB 030520Z 0306/0406 VRB05KT P6SM VCSH BKN100 WS015/22040KT
     FM031200 21008KT P6SM VCSH BKN120
     FM031800 32012G23KT P6SM BKN150
     FM040100 32006KT P6SM SCT100=

USA.gov is the U.S. government's official web portal to all federal, state and local government web resources and services.